CST,Max TemperatureF,Mean TemperatureF,Min TemperatureF,Max Dew PointF,MeanDew PointF,Min DewpointF,Max Humidity, Mean Humidity, Min Humidity, Max Sea Level PressureIn, Mean Sea Level PressureIn, Min Sea Level PressureIn, Max VisibilityMiles, Mean VisibilityMiles, Min VisibilityMiles, Max Wind SpeedMPH, Mean Wind SpeedMPH, Max Gust SpeedMPH,PrecipitationIn, CloudCover, Events, WindDirDegrees
2013-1-1,30,12,-7,19,2,-11,93,84,40,30.25,30.17,30.01,10,10,7,8,2,,0.00,4,,201
2013-1-2,23,20,17,21,18,14,100,92,86,30.06,29.98,29.94,10,6,2,9,7,,0.00,8,Snow,197
2013-1-3,23,18,12,19,13,5,93,84,67,30.23,30.13,30.05,10,9,2,14,10,17,0.00,5,Snow,260
2013-1-4,32,24,15,19,16,12,100,80,60,30.11,30.04,29.98,10,10,10,15,8,21,0.00,0,,228
2013-1-5,26,17,8,18,14,3,100,88,64,30.07,29.97,29.84,10,10,10,10,4,,0.00,2,,223
2013-1-6,24,18,12,18,13,7,93,82,59,30.20,30.09,29.99,12,10,10,14,9,,0.00,1,,260
2013-1-7,37,28,19,28,23,16,93,79,60,29.97,29.90,29.86,12,10,10,16,12,24,0.00,1,,194
2013-1-8,35,25,15,30,23,14,100,90,75,29.96,29.89,29.74,10,8,1,14,3,20,0.00,3,,179
2013-1-9,35,30,24,28,25,21,87,75,56,30.34,30.09,29.88,10,10,10,22,12,33,0.00,1,,228
2013-1-10,39,32,24,36,27,21,100,78,49,30.29,30.09,29.73,10,9,2,14,10,18,0.01,4,Rain,143
2013-1-11,42,38,35,43,38,36,100,98,87,29.72,29.53,29.35,10,2,1,15,8,20,0.00,8,,153
2013-1-12,39,22,6,39,15,0,100,80,67,30.06,29.73,29.36,10,10,5,25,14,31,0.00,6,Snow,246
2013-1-13,8,6,3,3,0,-2,85,79,72,30.21,30.09,30.03,12,9,3,13,7,,0.00,5,Snow,275
2013-1-14,12,9,6,7,4,1,85,81,67,30.38,30.29,30.22,10,10,10,10,5,,0.00,1,,216
2013-1-15,30,19,8,19,13,7,92,76,37,30.24,30.10,29.80,10,10,10,15,8,24,0.00,0,,189
2013-1-16,37,26,12,34,16,-4,100,70,40,30.22,29.85,29.63,10,9,2,17,13,26,0.00,5,Snow,255
2013-1-17,19,14,8,12,3,-6,86,63,45,30.37,30.31,30.23,10,10,2,12,7,,0.00,6,Snow,272
2013-1-18,42,30,17,30,22,12,93,82,61,30.27,29.93,29.70,10,9,3,17,8,23,0.00,5,Snow,167
2013-1-19,39,21,3,32,19,-4,100,83,56,30.18,29.84,29.67,10,10,10,40,7,48,0.00,3,,251
2013-1-20,6,3,0,1,-6,-11,79,70,56,30.38,30.28,30.21,12,10,2,17,13,25,0.00,2,Snow,287
2013-1-21,-2,-6,-9,-9,-15,-18,77,65,55,30.32,30.27,30.24,10,10,5,20,14,25,0.00,1,,286
2013-1-22,19,4,-11,-4,-13,-18,77,67,28,30.39,30.30,30.22,12,10,10,9,6,,0.00,3,,279
2013-1-23,15,6,-5,9,-3,-17,85,68,47,30.59,30.27,30.13,10,8,3,24,5,32,0.00,5,Snow,315
2013-1-24,12,2,-7,3,-10,-17,67,62,56,30.66,30.49,30.14,10,10,10,16,7,18,0.00,4,,82
2013-1-25,19,12,5,12,6,-2,79,70,53,30.29,30.07,29.92,10,10,3,21,11,29,0.00,5,Snow,239
2013-1-26,24,12,0,14,3,-4,85,72,58,30.33,30.24,30.11,10,10,10,13,4,,0.00,3,,136
2013-1-27,33,28,24,32,22,12,100,78,56,30.10,29.94,29.79,10,7,0,12,7,17,0.00,5,Snow,113
2013-1-28,35,32,30,36,32,30,100,99,93,29.88,29.79,29.62,5,2,0,9,2,,0.00,8,Fog,108
2013-1-29,37,32,28,34,31,23,100,92,80,29.73,29.62,29.53,10,6,2,17,6,21,0.00,8,,332
2013-1-30,28,19,10,23,14,3,86,78,68,29.73,29.68,29.64,10,10,5,20,14,28,0.00,5,Snow,319
2013-1-31,8,2,-5,1,-5,-15,79,70,52,30.23,29.95,29.74,10,9,4,21,15,28,0.00,5,Snow,290